createdAt,value
2018-09-12T00:00:51.876Z,2.77
2018-09-12T00:03:20.159Z,3.03
2018-09-12T00:05:48.426Z,3.30
2018-09-12T00:08:16.696Z,3.10
2018-09-12T00:10:44.976Z,2.97
2018-09-12T00:13:13.300Z,2.70
2018-09-12T00:15:41.710Z,3.00
2018-09-12T00:18:09.983Z,3.10
2018-09-12T00:20:39.103Z,2.70
2018-09-12T00:23:07.378Z,3.10
2018-09-12T00:25:35.674Z,2.77
2018-09-12T00:28:03.959Z,2.67
2018-09-12T00:30:32.338Z,3.50
2018-09-12T00:33:00.623Z,2.73
2018-09-12T00:35:29.014Z,3.07
2018-09-12T00:37:57.282Z,2.43
2018-09-12T00:40:25.534Z,2.93
2018-09-12T00:42:53.822Z,2.97
2018-09-12T00:45:22.194Z,2.77
2018-09-12T00:47:50.475Z,3.20
2018-09-12T00:50:18.728Z,3.10
2018-09-12T00:52:47.003Z,2.50
2018-09-12T00:55:15.298Z,3.43
2018-09-12T00:57:43.631Z,2.50
2018-09-12T01:00:12.250Z,2.50
2018-09-12T01:02:51.239Z,2.70
2018-09-12T01:05:19.526Z,2.17
2018-09-12T01:07:47.947Z,2.67
2018-09-12T01:10:16.315Z,2.70
2018-09-12T01:12:44.659Z,3.10
2018-09-12T01:15:13.545Z,2.43
2018-09-12T01:17:41.834Z,2.87
2018-09-12T01:20:10.111Z,2.50
2018-09-12T01:22:38.400Z,2.30
2018-09-12T01:25:06.667Z,2.80
2018-09-12T01:27:34.979Z,2.47
2018-09-12T01:30:03.304Z,2.67
2018-09-12T01:32:31.583Z,2.73
2018-09-12T01:34:59.854Z,2.60
2018-09-12T01:37:28.181Z,3.30
2018-09-12T01:39:56.573Z,2.50
2018-09-12T01:42:24.863Z,2.57
2018-09-12T01:44:53.179Z,2.60
2018-09-12T01:47:21.459Z,2.60
2018-09-12T01:49:49.771Z,2.80
2018-09-12T01:52:18.031Z,2.50
2018-09-12T01:54:46.346Z,2.50
2018-09-12T01:57:14.598Z,2.50
2018-09-12T01:59:42.870Z,2.77
2018-09-12T02:02:11.243Z,2.90
2018-09-12T02:04:39.575Z,2.60
2018-09-12T02:07:07.849Z,2.53
2018-09-12T02:09:36.179Z,2.50
2018-09-12T02:12:04.454Z,2.70
2018-09-12T02:14:32.766Z,3.00
2018-09-12T02:17:01.071Z,3.00
2018-09-12T02:19:29.370Z,2.60
2018-09-12T02:21:57.666Z,3.40
2018-09-12T02:24:25.981Z,3.00
2018-09-12T02:26:54.366Z,2.77
2018-09-12T02:29:22.678Z,2.57
2018-09-12T02:31:50.962Z,2.70
2018-09-12T02:34:19.247Z,2.60
2018-09-12T02:36:47.515Z,2.70
2018-09-12T02:39:15.810Z,2.87
2018-09-12T02:41:44.206Z,2.70
2018-09-12T02:44:12.534Z,2.80
2018-09-12T02:46:40.798Z,2.50
2018-09-12T02:49:09.091Z,2.67
2018-09-12T02:51:37.383Z,2.40
2018-09-12T02:54:05.907Z,2.60
2018-09-12T02:56:34.163Z,2.80
2018-09-12T02:59:02.478Z,2.67
2018-09-12T03:01:30.747Z,2.80
2018-09-12T03:03:59.145Z,2.53
2018-09-12T03:06:27.411Z,2.73
2018-09-12T03:08:55.751Z,2.37
2018-09-12T03:11:24.088Z,2.70
2018-09-12T03:13:52.382Z,2.00
2018-09-12T03:16:20.643Z,2.90
2018-09-12T03:18:49.250Z,2.50
2018-09-12T03:21:17.531Z,2.77
2018-09-12T03:23:45.811Z,2.93
2018-09-12T03:26:14.084Z,2.53
2018-09-12T03:28:42.363Z,2.30
2018-09-12T03:31:10.710Z,2.87
2018-09-12T03:33:38.990Z,2.60
2018-09-12T03:36:07.255Z,2.43
2018-09-12T03:38:35.690Z,2.90
2018-09-12T03:41:04.011Z,2.40
2018-09-12T03:43:32.306Z,2.90
2018-09-12T03:46:00.726Z,2.40
2018-09-12T03:48:28.986Z,2.73
2018-09-12T03:50:57.359Z,2.20
2018-09-12T03:53:26.650Z,2.53
2018-09-12T03:55:54.938Z,2.80
2018-09-12T03:58:23.195Z,2.50
2018-09-12T04:00:51.501Z,2.90
2018-09-12T04:03:19.779Z,3.10
2018-09-12T04:05:48.103Z,3.00
2018-09-12T04:08:16.406Z,3.20
2018-09-12T04:10:44.747Z,2.80
2018-09-12T04:13:13.040Z,2.67
2018-09-12T04:15:41.322Z,2.90
2018-09-12T04:18:09.640Z,3.10
2018-09-12T04:20:37.942Z,2.93
2018-09-12T04:23:06.211Z,2.90
2018-09-12T04:25:34.486Z,2.90
2018-09-12T04:28:02.850Z,2.37
2018-09-12T04:30:31.149Z,2.37
2018-09-12T04:32:59.699Z,2.90
2018-09-12T04:35:28.014Z,3.00
2018-09-12T04:37:56.318Z,2.20
2018-09-12T04:40:24.627Z,2.60
2018-09-12T04:42:52.956Z,2.77
2018-09-12T04:45:21.214Z,3.20
2018-09-12T04:47:49.518Z,2.87
2018-09-12T04:50:17.853Z,2.70
2018-09-12T04:52:46.134Z,2.87
2018-09-12T04:55:14.494Z,2.60
2018-09-12T04:57:42.778Z,3.10
2018-09-12T05:00:11.145Z,2.87
2018-09-12T05:02:39.442Z,2.53
2018-09-12T05:05:07.726Z,2.83
2018-09-12T05:07:35.994Z,3.67
2018-09-12T05:10:04.349Z,3.27
2018-09-12T05:12:33.214Z,3.63
2018-09-12T05:15:01.518Z,2.60
2018-09-12T05:17:29.863Z,3.53
2018-09-12T05:19:58.142Z,3.20
2018-09-12T05:22:26.393Z,2.80
2018-09-12T05:24:54.702Z,2.97
2018-09-12T05:27:23.015Z,3.43
2018-09-12T05:29:51.328Z,3.30
2018-09-12T05:32:19.630Z,3.07
2018-09-12T05:34:47.943Z,3.33
2018-09-12T05:37:16.232Z,3.30
2018-09-12T05:39:44.547Z,3.30
2018-09-12T05:42:12.859Z,3.03
2018-09-12T05:44:41.206Z,3.20
2018-09-12T05:47:09.502Z,2.97
2018-09-12T05:49:37.860Z,3.10
2018-09-12T05:52:06.603Z,2.90
2018-09-12T05:54:34.915Z,3.20
2018-09-12T05:57:03.232Z,3.63
2018-09-12T05:59:31.507Z,3.30
2018-09-12T06:01:59.887Z,3.43
2018-09-12T06:04:28.207Z,3.70
2018-09-12T06:06:56.609Z,3.53
2018-09-12T06:09:24.919Z,3.87
2018-09-12T06:11:53.299Z,3.47
2018-09-12T06:14:21.671Z,3.40
2018-09-12T06:16:49.999Z,3.10
2018-09-12T06:19:18.310Z,3.40
2018-09-12T06:21:46.686Z,2.90
2018-09-12T06:24:15.043Z,3.30
2018-09-12T06:26:43.325Z,3.40
2018-09-12T06:29:11.599Z,3.20
2018-09-12T06:31:39.922Z,3.10
2018-09-12T06:34:08.307Z,3.10
2018-09-12T06:36:36.627Z,3.30
2018-09-12T06:39:07.919Z,3.23
2018-09-12T06:41:36.306Z,2.87
2018-09-12T06:44:04.727Z,2.73
2018-09-12T06:46:33.063Z,3.30
2018-09-12T06:49:01.427Z,2.97
2018-09-12T06:51:29.843Z,2.80
2018-09-12T06:53:58.124Z,3.40
2018-09-12T06:56:26.502Z,2.70
2018-09-12T06:58:54.810Z,2.93
2018-09-12T07:01:23.106Z,2.80
2018-09-12T07:03:51.435Z,3.00
2018-09-12T07:06:19.833Z,3.27
2018-09-12T07:08:48.101Z,3.00
2018-09-12T07:11:16.397Z,3.10
2018-09-12T07:13:44.657Z,3.13
2018-09-12T07:16:13.666Z,2.40
2018-09-12T07:18:41.962Z,3.00
2018-09-12T07:21:10.258Z,3.33
2018-09-12T07:23:38.526Z,2.63
2018-09-12T07:26:07.007Z,2.50
2018-09-12T07:28:35.271Z,2.70
2018-09-12T07:31:03.550Z,2.70
2018-09-12T07:33:31.823Z,3.20
2018-09-12T07:36:00.123Z,2.70
2018-09-12T07:38:28.410Z,2.50
2018-09-12T07:40:56.719Z,2.60
2018-09-12T07:43:24.993Z,3.10
2018-09-12T07:45:53.279Z,2.87
2018-09-12T07:48:21.596Z,2.60
2018-09-12T07:50:50.534Z,2.73
2018-09-12T07:53:19.467Z,3.23
2018-09-12T07:55:47.802Z,2.40
2018-09-12T07:58:16.606Z,2.30
2018-09-12T08:00:44.868Z,2.80
2018-09-12T08:03:13.171Z,3.27
2018-09-12T08:05:41.459Z,2.77
2018-09-12T08:08:09.763Z,3.20
2018-09-12T08:10:38.056Z,2.83
2018-09-12T08:13:06.455Z,2.30
2018-09-12T08:15:34.766Z,2.60
2018-09-12T08:18:03.090Z,3.10
2018-09-12T08:20:31.355Z,1.98
2018-09-12T08:22:59.705Z,2.50
2018-09-12T08:25:27.958Z,2.80
2018-09-12T08:27:56.234Z,2.73
2018-09-12T08:30:24.523Z,2.73
2018-09-12T08:32:52.894Z,3.30
2018-09-12T08:35:21.180Z,2.50
2018-09-12T08:37:49.562Z,2.60
2018-09-12T08:40:17.911Z,2.30
2018-09-12T08:42:46.266Z,2.70
2018-09-12T08:45:14.562Z,2.80
2018-09-12T08:47:42.921Z,2.70
2018-09-12T08:50:11.163Z,2.37
2018-09-12T08:52:39.646Z,2.50
2018-09-12T08:55:08.056Z,2.50
2018-09-12T08:57:36.382Z,2.50
2018-09-12T09:00:04.995Z,2.57
2018-09-12T09:02:33.391Z,2.50
2018-09-12T09:05:01.727Z,3.20
2018-09-12T09:07:29.989Z,2.30
2018-09-12T09:09:58.370Z,2.70
2018-09-12T09:12:26.675Z,2.50
2018-09-12T09:14:54.969Z,2.50
2018-09-12T09:17:23.300Z,2.70
2018-09-12T09:19:51.695Z,2.70
2018-09-12T09:22:20.064Z,3.07
2018-09-12T09:24:48.366Z,2.40
2018-09-12T09:27:16.654Z,2.90
2018-09-12T09:29:44.939Z,2.80
2018-09-12T09:32:13.259Z,3.00
2018-09-12T09:34:41.556Z,2.70
2018-09-12T09:37:09.955Z,2.40
2018-09-12T09:39:38.299Z,3.20
2018-09-12T09:42:06.640Z,3.00
2018-09-12T09:44:35.987Z,3.10
2018-09-12T09:47:04.259Z,3.02
2018-09-12T09:49:32.674Z,3.10
2018-09-12T09:52:00.961Z,3.03
2018-09-12T09:54:29.317Z,2.60
2018-09-12T09:56:57.587Z,2.50
2018-09-12T09:59:25.958Z,3.07
2018-09-12T10:01:59.935Z,3.20
2018-09-12T10:04:33.434Z,3.17
2018-09-12T10:07:07.059Z,3.20
2018-09-12T10:09:35.348Z,2.83
2018-09-12T10:12:04.230Z,2.70
2018-09-12T10:14:32.699Z,3.10
2018-09-12T10:17:01.035Z,2.37
2018-09-12T10:19:29.353Z,2.90
2018-09-12T10:21:57.646Z,3.50
2018-09-12T10:24:26.344Z,3.30
2018-09-12T10:26:54.661Z,3.23
2018-09-12T10:29:22.955Z,3.43
2018-09-12T10:31:51.242Z,3.40
2018-09-12T10:34:19.618Z,2.97
2018-09-12T10:36:47.888Z,3.40
2018-09-12T10:39:16.223Z,3.37
2018-09-12T10:41:44.650Z,3.40
2018-09-12T10:44:12.983Z,3.30
2018-09-12T10:46:41.258Z,3.00
2018-09-12T10:49:09.587Z,3.37
2018-09-12T10:51:37.915Z,3.53
2018-09-12T10:54:07.122Z,3.97
2018-09-12T10:56:35.414Z,3.47
2018-09-12T10:59:03.772Z,3.70
2018-09-12T11:01:32.063Z,3.90
2018-09-12T11:04:00.374Z,3.67
2018-09-12T11:06:28.690Z,4.53
2018-09-12T11:08:56.999Z,4.33
2018-09-12T11:11:25.303Z,3.50
2018-09-12T11:13:53.711Z,4.83
2018-09-12T11:16:22.063Z,4.10
2018-09-12T11:18:50.490Z,4.33
2018-09-12T11:21:18.786Z,4.40
2018-09-12T11:23:47.116Z,4.50
2018-09-12T11:26:15.395Z,4.03
2018-09-12T11:28:43.747Z,4.00
2018-09-12T11:31:12.044Z,4.20
2018-09-12T11:33:40.369Z,4.50
2018-09-12T11:36:08.967Z,4.23
2018-09-12T11:38:37.294Z,4.20
2018-09-12T11:41:05.634Z,4.67
2018-09-12T11:43:33.966Z,4.60
2018-09-12T11:46:03.247Z,4.03
2018-09-12T11:48:31.978Z,4.00
2018-09-12T11:51:00.246Z,4.23
2018-09-12T11:53:28.526Z,3.83
2018-09-12T11:55:56.814Z,3.47
2018-09-12T11:58:25.091Z,4.07
2018-09-12T12:00:53.396Z,3.80
2018-09-12T12:03:21.695Z,3.97
2018-09-12T12:05:50.003Z,3.80
2018-09-12T12:08:18.291Z,3.67
2018-09-12T12:10:46.634Z,3.47
2018-09-12T12:13:14.895Z,3.50
2018-09-12T12:15:43.166Z,3.63
2018-09-12T12:18:11.554Z,3.80
2018-09-12T12:20:39.847Z,3.63
2018-09-12T12:23:08.138Z,4.47
2018-09-12T12:25:36.738Z,3.53
2018-09-12T12:28:05.131Z,3.00
2018-09-12T12:30:33.408Z,3.60
2018-09-12T12:33:01.788Z,3.97
2018-09-12T12:35:30.322Z,3.40
2018-09-12T12:37:58.579Z,3.60
2018-09-12T12:40:26.954Z,3.60
2018-09-12T12:42:55.303Z,3.30
2018-09-12T12:45:23.682Z,3.03
2018-09-12T12:47:51.990Z,4.00
2018-09-12T12:50:20.299Z,3.60
2018-09-12T12:52:48.618Z,3.10
2018-09-12T12:55:16.998Z,3.52
2018-09-12T12:57:45.258Z,3.20
2018-09-12T13:00:13.542Z,3.60
2018-09-12T13:02:41.910Z,3.23
2018-09-12T13:05:10.203Z,2.97
2018-09-12T13:07:39.486Z,3.20
2018-09-12T13:10:07.803Z,3.33
2018-09-12T13:12:36.149Z,3.47
2018-09-12T13:15:04.667Z,3.03
2018-09-12T13:17:33.059Z,3.50
2018-09-12T13:20:01.434Z,3.43
2018-09-12T13:22:29.695Z,2.90
2018-09-12T13:24:58.058Z,3.10
2018-09-12T13:27:26.399Z,3.10
2018-09-12T13:29:54.662Z,3.33
2018-09-12T13:32:22.950Z,3.37
2018-09-12T13:34:51.291Z,3.50
2018-09-12T13:37:19.591Z,3.60
2018-09-12T13:39:47.909Z,3.57
2018-09-12T13:42:16.199Z,3.47
2018-09-12T13:44:44.519Z,3.00
2018-09-12T13:47:12.804Z,3.13
2018-09-12T13:49:41.117Z,2.87
2018-09-12T13:52:09.477Z,3.33
2018-09-12T13:54:37.764Z,3.60
2018-09-12T13:57:06.115Z,3.30
2018-09-12T13:59:34.378Z,3.20
2018-09-12T14:02:02.662Z,2.90
2018-09-12T14:04:30.983Z,3.47
2018-09-12T14:06:59.591Z,3.17
2018-09-12T14:09:27.951Z,3.40
2018-09-12T14:11:56.282Z,3.77
2018-09-12T14:14:24.590Z,3.33
2018-09-12T14:16:52.883Z,3.30
2018-09-12T14:19:21.317Z,3.50
2018-09-12T14:21:49.571Z,3.30
2018-09-12T14:24:17.868Z,3.50
2018-09-12T14:26:46.177Z,3.60
2018-09-12T14:29:14.542Z,4.00
2018-09-12T14:31:42.829Z,3.50
2018-09-12T14:34:11.187Z,3.70
2018-09-12T14:36:39.498Z,3.30
2018-09-12T14:39:08.546Z,3.40
2018-09-12T14:41:36.851Z,3.90
2018-09-12T14:44:05.187Z,4.20
2018-09-12T14:46:33.514Z,3.67
2018-09-12T14:49:01.793Z,3.40
2018-09-12T14:51:30.151Z,4.00
2018-09-12T14:53:58.401Z,3.27
2018-09-12T14:56:26.708Z,3.60
2018-09-12T14:58:54.994Z,3.47
2018-09-12T15:01:23.283Z,3.30
2018-09-12T15:03:51.558Z,3.83
2018-09-12T15:06:19.883Z,4.40
2018-09-12T15:08:48.156Z,3.97
2018-09-12T15:11:16.482Z,4.00
2018-09-12T15:13:44.779Z,4.37
2018-09-12T15:16:13.102Z,3.80
2018-09-12T15:18:41.413Z,3.80
2018-09-12T15:21:09.782Z,3.97
2018-09-12T15:23:38.166Z,4.40
2018-09-12T15:26:06.462Z,4.60
2018-09-12T15:28:41.318Z,4.47
2018-09-12T15:31:09.602Z,5.33
2018-09-12T15:33:37.988Z,4.67
2018-09-12T15:36:06.311Z,4.97
2018-09-12T15:38:34.638Z,4.70
2018-09-12T15:41:02.980Z,5.10
2018-09-12T15:43:31.263Z,4.83
2018-09-12T15:45:59.564Z,5.13
2018-09-12T15:48:27.863Z,5.00
2018-09-12T15:50:56.152Z,5.20
2018-09-12T15:53:24.458Z,5.60
2018-09-12T15:55:53.539Z,5.87
2018-09-12T15:58:21.955Z,4.87
2018-09-12T16:00:50.165Z,5.43
2018-09-12T16:03:18.479Z,5.53
2018-09-12T16:05:46.866Z,5.27
2018-09-12T16:08:15.151Z,5.10
2018-09-12T16:10:43.414Z,5.63
2018-09-12T16:13:11.794Z,4.70
2018-09-12T16:15:40.170Z,5.17
2018-09-12T16:18:08.501Z,5.17
2018-09-12T16:20:36.787Z,4.62
2018-09-12T16:23:05.301Z,4.80
2018-09-12T16:25:33.551Z,4.80
2018-09-12T16:28:01.886Z,4.70
2018-09-12T16:30:30.151Z,5.30
2018-09-12T16:32:58.490Z,5.37
2018-09-12T16:35:26.720Z,5.87
2018-09-12T16:37:55.750Z,5.57
2018-09-12T16:40:24.193Z,5.07
2018-09-12T16:42:52.462Z,6.63
2018-09-12T16:45:20.751Z,6.60
2018-09-12T16:47:49.051Z,7.40
2018-09-12T16:50:17.415Z,8.37
2018-09-12T16:52:45.699Z,7.73
2018-09-12T16:55:13.995Z,7.80
2018-09-12T16:57:42.275Z,7.63
2018-09-12T17:00:10.666Z,7.37
2018-09-12T17:02:38.950Z,7.30
2018-09-12T17:05:07.326Z,7.83
2018-09-12T17:07:35.690Z,8.40
2018-09-12T17:10:04.071Z,6.92
2018-09-12T17:12:32.435Z,6.60
2018-09-12T17:15:00.703Z,7.53
2018-09-12T17:17:29.590Z,6.90
2018-09-12T17:19:57.871Z,7.00
2018-09-12T17:22:26.146Z,7.33
2018-09-12T17:24:54.416Z,7.77
2018-09-12T17:27:22.718Z,6.80
2018-09-12T17:29:50.990Z,7.17
2018-09-12T17:32:19.360Z,6.00
2018-09-12T17:34:47.630Z,6.27
2018-09-12T17:37:15.947Z,5.70
2018-09-12T17:39:44.291Z,6.00
2018-09-12T17:42:12.614Z,5.93
2018-09-12T17:44:40.966Z,6.17
2018-09-12T17:47:09.287Z,6.10
2018-09-12T17:49:37.585Z,6.03
2018-09-12T17:52:06.122Z,6.07
2018-09-12T17:54:34.423Z,6.40
2018-09-12T17:57:03.410Z,6.70
2018-09-12T18:06:01.469Z,5.63
2018-09-12T18:08:29.750Z,6.20
2018-09-12T18:10:58.101Z,5.67
2018-09-12T18:13:26.386Z,6.10
2018-09-12T18:15:54.642Z,5.33
2018-09-12T18:18:22.955Z,5.80
2018-09-12T18:20:51.301Z,5.77
2018-09-12T18:23:19.615Z,5.33
2018-09-12T18:25:47.903Z,5.77
2018-09-12T18:28:16.187Z,6.43
2018-09-12T18:30:44.511Z,6.60
2018-09-12T18:33:12.954Z,5.30
2018-09-12T18:35:41.370Z,5.70
2018-09-12T18:38:09.674Z,6.27
2018-09-12T18:40:37.949Z,5.43
2018-09-12T18:43:06.472Z,5.90
2018-09-12T18:45:34.711Z,5.80
2018-09-12T18:48:03.111Z,5.83
2018-09-12T18:50:31.517Z,5.63
2018-09-12T18:53:00.291Z,6.00
2018-09-12T18:55:28.661Z,5.77
2018-09-12T18:57:57.106Z,6.23
2018-09-12T19:00:25.614Z,5.57
2018-09-12T19:02:54.003Z,5.57
2018-09-12T19:05:22.366Z,5.97
2018-09-12T19:08:21.247Z,6.00
2018-09-12T19:10:49.732Z,5.77
2018-09-12T19:13:18.127Z,6.33
2018-09-12T19:15:46.471Z,5.83
2018-09-12T19:18:14.947Z,5.70
2018-09-12T19:20:43.172Z,5.80
2018-09-12T19:23:11.572Z,5.40
2018-09-12T19:25:39.867Z,5.90
2018-09-12T19:28:08.174Z,5.33
2018-09-12T19:30:36.440Z,5.73
2018-09-12T19:33:04.895Z,5.07
2018-09-12T19:35:33.183Z,5.60
2018-09-12T19:38:01.582Z,5.50
2018-09-12T19:40:29.975Z,6.13
2018-09-12T19:42:58.334Z,5.53
2018-09-12T19:45:26.730Z,5.67
2018-09-12T19:47:55.111Z,5.87
2018-09-12T19:50:23.550Z,5.70
2018-09-12T19:52:51.861Z,5.60
2018-09-12T19:55:20.379Z,5.80
2018-09-12T19:57:48.779Z,5.47
2018-09-12T20:00:18.506Z,5.50
2018-09-12T20:02:46.927Z,5.50
2018-09-12T20:05:15.346Z,5.80
2018-09-12T20:07:43.650Z,6.07
2018-09-12T20:10:12.810Z,5.33
2018-09-12T20:12:41.452Z,6.00
2018-09-12T20:15:09.891Z,5.80
2018-09-12T20:17:38.190Z,6.30
2018-09-12T20:20:06.474Z,6.33
2018-09-12T20:22:34.766Z,5.90
2018-09-12T20:25:03.169Z,5.93
2018-09-12T20:27:31.454Z,6.70
2018-09-12T20:29:59.822Z,5.70
2018-09-12T20:32:28.117Z,6.03
2018-09-12T20:34:56.451Z,6.10
2018-09-12T20:37:24.811Z,6.10
2018-09-12T20:39:53.219Z,5.80
2018-09-12T20:42:21.532Z,5.70
2018-09-12T20:44:49.859Z,5.67
2018-09-12T20:47:18.186Z,6.10
2018-09-12T20:49:46.628Z,5.80
2018-09-12T20:52:15.015Z,5.97
2018-09-12T20:54:43.294Z,6.37
2018-09-12T20:57:11.594Z,6.03
2018-09-12T20:59:39.910Z,6.43
2018-09-12T21:02:08.298Z,6.20
2018-09-12T21:04:36.636Z,6.27
2018-09-12T21:07:05.072Z,5.75
2018-09-12T21:09:33.390Z,5.37
2018-09-12T21:12:01.714Z,6.23
2018-09-12T21:14:30.014Z,5.43
2018-09-12T21:16:58.335Z,5.90
2018-09-12T21:19:26.699Z,5.65
2018-09-12T21:21:55.102Z,6.10
2018-09-12T21:24:23.402Z,5.53
2018-09-12T21:26:51.697Z,5.40
2018-09-12T21:29:20.019Z,6.87
2018-09-12T21:31:48.297Z,5.67
2018-09-12T21:34:16.587Z,5.27
2018-09-12T21:36:44.881Z,6.07
2018-09-12T21:39:13.198Z,5.10
2018-09-12T21:41:41.531Z,5.30
2018-09-12T21:44:09.878Z,5.70
2018-09-12T21:46:38.163Z,5.50
2018-09-12T21:49:06.494Z,5.70
2018-09-12T21:51:34.782Z,5.30
2018-09-12T21:54:03.071Z,5.30
2018-09-12T21:56:31.378Z,5.17
2018-09-12T21:58:59.690Z,5.03
2018-09-12T22:01:27.974Z,5.17
2018-09-12T22:03:56.302Z,5.37
2018-09-12T22:06:24.706Z,4.83
2018-09-12T22:08:53.081Z,5.03
2018-09-12T22:11:21.529Z,5.07
2018-09-12T22:13:49.791Z,5.53
2018-09-12T22:16:18.083Z,5.00
2018-09-12T22:18:46.374Z,5.00
2018-09-12T22:21:14.706Z,5.37
2018-09-12T22:23:42.995Z,5.20
2018-09-12T22:26:11.283Z,5.57
2018-09-12T22:28:39.586Z,5.70
2018-09-12T22:31:07.994Z,4.47
2018-09-12T22:33:36.254Z,4.97
2018-09-12T22:36:04.563Z,5.10
2018-09-12T22:38:32.828Z,5.17
2018-09-12T22:41:01.126Z,4.90
2018-09-12T22:43:29.439Z,5.00
2018-09-12T22:45:57.747Z,5.30
2018-09-12T22:48:26.035Z,4.97
2018-09-12T22:50:55.134Z,4.70
2018-09-12T22:53:23.467Z,5.70
2018-09-12T22:55:51.749Z,4.60
2018-09-12T22:58:20.155Z,4.53
2018-09-12T23:00:54.677Z,4.90
2018-09-12T23:03:22.955Z,4.60
2018-09-12T23:05:51.230Z,4.60
2018-09-12T23:08:19.537Z,4.57
2018-09-12T23:10:48.584Z,4.60
2018-09-12T23:13:16.926Z,4.80
2018-09-12T23:15:45.248Z,4.10
2018-09-12T23:18:13.575Z,4.30
2018-09-12T23:20:41.877Z,4.53
2018-09-12T23:23:10.139Z,4.87
2018-09-12T23:25:38.522Z,4.50
2018-09-12T23:28:06.810Z,5.07
2018-09-12T23:30:35.077Z,4.30
2018-09-12T23:33:03.394Z,4.00
2018-09-12T23:35:31.715Z,4.90
2018-09-12T23:38:00.047Z,4.70
2018-09-12T23:40:29.018Z,4.00
2018-09-12T23:42:57.399Z,3.87
2018-09-12T23:45:25.658Z,4.27
2018-09-12T23:47:53.938Z,4.30
2018-09-12T23:50:22.202Z,3.50
2018-09-12T23:52:50.500Z,3.80
2018-09-12T23:55:18.794Z,4.27
2018-09-12T23:57:47.090Z,3.90
